Time;durP1;ratioP1;P1;durP2;ratioP2;P2;SDS_P1;SDS_P2;PMS_P1;PMS_P2;Temp;Humidity;BMP_temperature;BMP_pressure;BME280_temperature;BME280_humidity;BME280_pressure;Samples;Min_cycle;Max_cycle;Signal;HPM_P1;HPM_P2
2021/11/18 00:01:16;;;;;;;21.70;8.95;;;;;;;2.51;81.60;100011.50;5020757;28;20047;-52
2021/11/18 00:03:43;;;;;;;23.75;10.63;;;;;;;2.54;81.21;100004.66;5020419;28;20513;-52
2021/11/18 00:06:09;;;;;;;17.17;8.18;;;;;;;2.58;80.79;100000.38;5023974;28;20586;-52
2021/11/18 00:08:37;;;;;;;19.27;8.57;;;;;;;2.37;81.01;99969.53;5017580;28;20038;-49
2021/11/18 00:11:06;;;;;;;15.00;7.60;;;;;;;2.53;80.98;99995.25;5015703;28;20046;-52
2021/11/18 00:13:35;;;;;;;18.73;8.95;;;;;;;2.56;81.07;99996.97;5030997;28;20037;-49
2021/11/18 00:16:01;;;;;;;19.60;6.43;;;;;;;2.50;80.73;99996.94;5024348;28;20037;-52
2021/11/18 00:18:31;;;;;;;15.10;7.65;;;;;;;2.39;80.52;99994.34;5018785;28;20041;-52
2021/11/18 00:20:58;;;;;;;;;;;;;;;2.37;80.85;99993.47;5016790;28;20102;-51
2021/11/18 00:23:26;;;;;;;14.02;7.35;;;;;;;2.35;80.64;99995.19;5059523;28;19917;-49
2021/11/18 00:25:53;;;;;;;14.27;6.15;;;;;;;2.24;80.61;99980.59;5036956;28;20063;-53
2021/11/18 00:28:19;;;;;;;12.65;6.32;;;;;;;2.31;80.04;99984.88;5015542;28;20041;-51
2021/11/18 00:30:45;;;;;;;14.35;7.15;;;;;;;2.30;79.75;99985.75;4997436;28;20575;-50
2021/11/18 00:33:12;;;;;;;13.68;6.25;;;;;;;2.37;79.42;99985.78;5014128;28;20045;-53
2021/11/18 00:35:38;;;;;;;15.38;6.50;;;;;;;2.40;79.21;99990.94;5024687;28;20091;-49
2021/11/18 00:38:06;;;;;;;14.15;5.88;;;;;;;2.35;78.43;99981.50;5019739;28;20115;-50
2021/11/18 00:40:39;;;;;;;13.23;6.15;;;;;;;2.30;78.18;99973.81;5046583;28;20050;-53
2021/11/18 00:43:08;;;;;;;9.45;4.70;;;;;;;2.28;77.04;99983.19;5013945;28;20413;-52
2021/11/18 00:45:35;;;;;;;8.37;3.70;;;;;;;2.29;76.91;99992.59;5025245;28;20046;-47
2021/11/18 00:48:00;;;;;;;8.60;4.80;;;;;;;2.27;76.78;99967.78;5030687;28;20037;-52
2021/11/18 00:50:31;;;;;;;12.93;6.13;;;;;;;2.20;76.93;99966.88;5033080;28;20068;-48
2021/11/18 00:52:57;;;;;;;9.25;4.00;;;;;;;2.24;75.90;99966.06;5017394;28;20134;-51
2021/11/18 00:55:26;;;;;;;11.70;5.38;;;;;;;2.25;75.30;99964.38;5021132;28;20148;-49
2021/11/18 00:57:55;;;;;;;8.60;3.70;;;;;;;2.24;74.91;99958.38;5041494;28;20037;-52
2021/11/18 01:00:24;;;;;;;10.43;5.28;;;;;;;2.20;75.12;99953.25;5000058;28;20080;-53
2021/11/18 01:02:50;;;;;;;9.50;5.18;;;;;;;2.20;75.08;99955.81;5063007;28;20413;-54
2021/11/18 01:05:20;;;;;;;11.70;6.13;;;;;;;2.20;75.50;99946.38;5031999;28;20088;-54
2021/11/18 01:07:46;;;;;;;11.00;5.83;;;;;;;2.27;75.27;99948.13;5026729;28;20047;-53
2021/11/18 01:10:14;;;;;;;7.30;3.25;;;;;;;2.21;75.86;99940.41;5024589;28;20316;-53
2021/11/18 01:12:41;;;;;;;10.18;5.10;;;;;;;2.06;76.46;99930.94;5027946;28;20524;-52
2021/11/18 01:15:10;;;;;;;15.50;6.82;;;;;;;2.13;76.73;99947.22;5041564;28;20045;-54
2021/11/18 01:17:36;;;;;;;17.35;7.10;;;;;;;2.11;76.66;99947.22;5038880;28;20544;-48
2021/11/18 01:20:05;;;;;;;16.15;7.53;;;;;;;2.09;76.91;99948.91;5071994;28;20045;-52
2021/11/18 01:22:32;;;;;;;11.27;5.32;;;;;;;1.99;76.95;99934.31;5027061;28;20128;-53
2021/11/18 01:24:58;;;;;;;10.93;5.22;;;;;;;1.96;77.27;99956.53;5019784;28;20073;-49
2021/11/18 01:27:28;;;;;;;8.48;4.72;;;;;;;1.84;77.24;99939.41;5033640;28;20480;-47
2021/11/18 01:30:09;;;;;;;11.85;6.10;;;;;;;1.73;77.35;99935.91;5034014;28;20038;-48
2021/11/18 01:32:35;;;;;;;15.52;6.88;;;;;;;1.84;77.27;99938.53;5030552;28;20044;-50
2021/11/18 01:35:01;;;;;;;6.30;3.25;;;;;;;1.86;77.02;99944.53;5039366;28;20044;-51
2021/11/18 01:37:28;;;;;;;11.15;4.65;;;;;;;1.74;77.66;99937.63;5044345;28;21298;-50
2021/11/18 01:39:54;;;;;;;15.20;6.50;;;;;;;1.65;78.35;99937.59;5033247;28;20540;-49
2021/11/18 01:42:20;;;;;;;10.95;5.50;;;;;;;1.48;78.80;99918.69;5026316;28;20068;-54
2021/11/18 01:44:50;;;;;;;14.93;7.32;;;;;;;1.60;78.78;99929.03;5019193;28;20472;-55
2021/11/18 01:47:16;;;;;;;16.70;7.00;;;;;;;1.68;78.45;99925.66;5036684;28;20574;-51
2021/11/18 01:49:46;;;;;;;16.02;6.13;;;;;;;1.74;77.92;99935.06;5011003;28;20516;-53
2021/11/18 01:52:14;;;;;;;12.48;5.78;;;;;;;1.63;77.89;99927.31;5027235;28;20045;-51
2021/11/18 01:54:42;;;;;;;14.50;7.13;;;;;;;1.56;77.50;99902.53;5033211;28;20080;-51
2021/11/18 01:57:12;;;;;;;19.52;7.85;;;;;;;1.71;77.41;99909.44;5044763;28;20068;-54
2021/11/18 01:59:44;;;;;;;17.50;7.82;;;;;;;1.65;76.98;99899.16;5041086;28;20056;-52
2021/11/18 02:02:29;;;;;;;14.35;5.88;;;;;;;1.75;76.11;99918.84;5037728;28;20060;-52
2021/11/18 02:05:20;;;;;;;16.85;8.00;;;;;;;1.69;75.78;99913.69;5020475;28;20042;-53
2021/11/18 02:07:49;;;;;;;12.15;6.00;;;;;;;1.76;75.48;99909.47;5045406;28;20471;-51
2021/11/18 02:10:23;;;;;;;18.95;8.50;;;;;;;1.78;75.43;99910.34;5015924;28;20180;-54
2021/11/18 02:12:49;;;;;;;;;;;;;;;1.85;75.18;99914.63;5039252;28;20041;-52
2021/11/18 02:15:22;;;;;;;16.88;7.40;;;;;;;1.78;74.54;99913.72;5031310;28;19924;-52
2021/11/18 02:17:48;;;;;;;20.90;8.20;;;;;;;1.78;74.13;99910.34;5004209;28;20165;-52
2021/11/18 02:20:30;;;;;;;14.48;7.22;;;;;;;1.77;74.03;99909.47;5025223;28;20044;-53
2021/11/18 02:22:56;;;;;;;21.65;8.13;;;;;;;1.76;73.94;99901.78;5037490;28;20095;-54
2021/11/18 02:25:31;;;;;;;10.07;4.50;;;;;;;1.81;73.26;99900.94;5035223;28;20528;-51
2021/11/18 02:27:58;;;;;;;17.80;7.57;;;;;;;1.72;72.65;99902.63;5027623;28;20414;-51
2021/11/18 02:30:34;;;;;;;15.65;6.95;;;;;;;1.61;72.30;99889.75;5010257;28;20577;-53
2021/11/18 02:33:01;;;;;;;12.32;6.13;;;;;;;1.61;72.09;99892.31;5024613;28;20429;-52
2021/11/18 02:35:30;;;;;;;16.55;6.63;;;;;;;1.60;71.85;99881.19;5054731;28;20045;-48
2021/11/18 02:37:57;;;;;;;15.02;7.00;;;;;;;1.46;71.66;99872.59;5037852;28;20041;-49
2021/11/18 02:40:25;;;;;;;16.88;7.85;;;;;;;1.48;71.50;99886.25;5019523;28;20461;-53
2021/11/18 02:42:53;;;;;;;13.65;6.43;;;;;;;1.44;71.17;99886.22;5025436;28;20037;-46
2021/11/18 02:45:23;;;;;;;16.38;7.38;;;;;;;1.44;70.89;99892.22;5025160;28;20049;-53
2021/11/18 02:47:49;;;;;;;11.82;4.65;;;;;;;1.46;71.09;99882.00;5035720;28;20131;-50
2021/11/18 02:50:20;;;;;;;15.07;6.13;;;;;;;1.46;70.42;99889.66;5020949;28;20155;-48
2021/11/18 02:52:48;;;;;;;13.98;6.85;;;;;;;1.32;70.63;99873.34;5018115;28;20049;-53
2021/11/18 02:55:20;;;;;;;11.93;6.05;;;;;;;1.34;70.00;99880.22;5036011;28;20049;-51
2021/11/18 02:57:47;;;;;;;17.42;7.80;;;;;;;1.37;70.53;99876.78;5020320;28;20067;-50
2021/11/18 03:00:20;;;;;;;18.83;7.55;;;;;;;1.40;70.05;99877.69;5042326;28;20044;-53
2021/11/18 03:02:47;;;;;;;16.00;7.25;;;;;;;1.39;69.97;99878.53;5004822;28;20037;-50
2021/11/18 03:05:13;;;;;;;15.40;7.00;;;;;;;1.34;69.73;99852.03;5031381;28;20053;-48
2021/11/18 03:07:39;;;;;;;9.25;5.07;;;;;;;1.40;69.01;99869.13;5029967;28;20053;-48
2021/11/18 03:10:08;;;;;;;17.33;6.05;;;;;;;1.29;69.15;99861.41;5031880;28;20040;-48
2021/11/18 03:12:35;;;;;;;17.58;8.35;;;;;;;1.33;69.55;99850.31;5037905;28;20048;-52
2021/11/18 03:15:01;;;;;;;15.20;7.80;;;;;;;1.20;69.43;99844.25;5029235;28;20041;-51
2021/11/18 03:17:28;;;;;;;10.57;5.60;;;;;;;1.20;68.93;99838.31;5032725;28;20038;-52
2021/11/18 03:20:17;;;;;;;15.05;7.30;;;;;;;1.13;69.68;99857.88;5023774;28;20107;-50
2021/11/18 03:22:44;;;;;;;17.00;7.88;;;;;;;1.12;69.52;99847.63;5036300;28;20044;-52
2021/11/18 03:25:11;;;;;;;12.60;5.63;;;;;;;1.14;69.26;99851.06;5034386;28;20099;-50
2021/11/18 03:27:38;;;;;;;13.30;6.38;;;;;;;1.03;68.88;99848.44;5028002;28;20045;-52
2021/11/18 03:30:05;;;;;;;17.63;7.55;;;;;;;0.99;69.32;99851.84;5022995;28;20506;-48
2021/11/18 03:32:33;;;;;;;14.73;7.07;;;;;;;1.06;68.89;99861.25;5022449;28;20098;-51
2021/11/18 03:34:59;;;;;;;13.52;6.32;;;;;;;1.01;68.75;99862.91;5010611;28;20516;-49
2021/11/18 03:37:25;;;;;;;9.18;4.53;;;;;;;0.88;68.21;99847.47;5014820;28;20065;-51
2021/11/18 03:39:51;;;;;;;14.07;7.55;;;;;;;0.80;68.11;99852.53;5012060;28;20054;-52
2021/11/18 03:42:18;;;;;;;15.85;8.18;;;;;;;0.89;68.34;99862.81;5017591;28;20049;-50
2021/11/18 03:44:44;;;;;;;16.17;8.23;;;;;;;0.74;68.28;99858.44;5003946;28;20056;-52
2021/11/18 03:47:14;;;;;;;13.93;7.20;;;;;;;0.67;68.48;99848.19;5029838;28;20037;-51
2021/11/18 03:49:43;;;;;;;20.02;8.20;;;;;;;0.54;68.77;99838.69;4996603;28;20049;-51
2021/11/18 03:52:11;;;;;;;18.30;8.43;;;;;;;0.58;68.86;99833.59;5013276;28;20514;-51
2021/11/18 03:54:39;;;;;;;6.63;3.40;;;;;;;0.68;68.72;99837.94;5039100;28;20064;-50
2021/11/18 03:57:05;;;;;;;14.25;6.45;;;;;;;0.61;68.35;99828.53;5031712;28;20510;-53
2021/11/18 03:59:36;;;;;;;13.90;4.82;;;;;;;0.56;68.97;99830.19;5021760;28;20095;-49
2021/11/18 04:02:07;;;;;;;11.60;5.00;;;;;;;0.55;68.54;99838.69;5020869;28;20141;-50
2021/11/18 04:04:45;;;;;;;13.25;6.03;;;;;;;0.53;68.86;99839.50;5008935;28;20515;-49
2021/11/18 04:07:13;;;;;;;14.40;6.18;;;;;;;0.41;68.55;99836.03;5029572;28;20510;-50
2021/11/18 04:09:40;;;;;;;24.15;9.23;;;;;;;0.41;68.86;99828.38;5022330;28;20061;-52
2021/11/18 04:12:08;;;;;;;19.02;8.02;;;;;;;0.42;68.59;99826.63;5035226;28;20068;-51
2021/11/18 04:14:36;;;;;;;18.52;7.78;;;;;;;0.38;68.71;99838.53;5011839;28;20470;-53
2021/11/18 04:17:07;;;;;;;13.38;5.60;;;;;;;0.23;68.27;99810.28;5020356;28;20198;-54
2021/11/18 04:19:33;;;;;;;16.67;8.15;;;;;;;0.08;68.84;99812.69;5024197;28;20143;-53
2021/11/18 04:22:00;;;;;;;16.48;6.28;;;;;;;0.22;68.56;99821.34;5022066;28;20582;-49
2021/11/18 04:24:28;;;;;;;16.38;7.10;;;;;;;0.12;69.02;99829.78;5028017;28;20132;-50
2021/11/18 04:26:54;;;;;;;22.55;10.27;;;;;;;0.00;69.15;99820.28;5004249;28;20065;-49
2021/11/18 04:29:27;;;;;;;18.33;8.65;;;;;;;0.06;69.12;99816.94;5020629;28;20157;-55
2021/11/18 04:32:08;;;;;;;10.02;5.28;;;;;;;0.08;69.44;99809.28;5010472;28;20581;-54
2021/11/18 04:34:35;;;;;;;11.35;6.30;;;;;;;0.08;68.77;99799.94;5053450;28;20033;-51
2021/11/18 04:37:03;;;;;;;20.75;9.13;;;;;;;0.18;69.06;99806.84;5058292;28;20042;-50
2021/11/18 04:39:31;;;;;;;25.15;11.55;;;;;;;0.27;68.52;99799.22;5028436;28;20046;-53
2021/11/18 04:41:56;;;;;;;16.90;8.38;;;;;;;0.25;68.39;99800.94;5024184;28;20041;-51
2021/11/18 04:44:23;;;;;;;15.05;7.03;;;;;;;0.09;68.72;99791.41;5031757;28;20052;-49
2021/11/18 04:46:54;;;;;;;21.85;9.45;;;;;;;0.04;68.83;99794.78;5028608;28;20064;-53
2021/11/18 04:49:21;;;;;;;26.08;9.32;;;;;;;-0.13;68.89;99776.72;5028271;28;20473;-51
2021/11/18 04:51:47;;;;;;;20.70;10.85;;;;;;;-0.05;69.29;99798.94;5030409;28;20513;-53
2021/11/18 04:54:14;;;;;;;25.63;11.57;;;;;;;-0.02;69.35;99791.31;5047736;28;20036;-53
2021/11/18 04:56:41;;;;;;;16.95;8.45;;;;;;;-0.03;69.06;99807.50;5033464;28;20052;-55
2021/11/18 04:59:08;;;;;;;19.70;8.80;;;;;;;0.00;68.96;99784.50;5029475;28;20041;-54
2021/11/18 05:01:35;;;;;;;17.13;8.32;;;;;;;0.14;68.64;99788.91;5020934;28;20528;-52
2021/11/18 05:04:03;;;;;;;28.58;10.48;;;;;;;0.08;68.53;99781.19;5007433;28;20041;-55
2021/11/18 05:06:29;;;;;;;30.38;11.18;;;;;;;0.13;68.74;99779.50;5022761;28;20041;-58
2021/11/18 05:08:55;;;;;;;28.90;11.30;;;;;;;0.00;68.76;99781.13;5012744;28;20049;-56
2021/11/18 05:11:21;;;;;;;18.33;8.20;;;;;;;0.05;68.98;99779.47;5019795;28;20046;-60
2021/11/18 05:13:47;;;;;;;17.90;8.57;;;;;;;-0.04;69.05;99777.66;5025053;28;20087;-54
2021/11/18 05:16:16;;;;;;;30.08;11.82;;;;;;;-0.09;69.43;99773.34;5009879;28;20034;-54
2021/11/18 05:18:42;;;;;;;31.17;13.52;;;;;;;0.03;69.36;99776.03;5029053;28;20037;-55
2021/11/18 05:21:12;;;;;;;30.52;13.18;;;;;;;0.07;69.19;99772.66;5026078;28;20045;-55
2021/11/18 05:23:39;;;;;;;32.67;13.98;;;;;;;0.07;69.34;99775.19;5031196;28;20040;-53
2021/11/18 05:26:08;;;;;;;20.70;8.43;;;;;;;0.02;68.91;99756.41;5036142;28;20060;-53
2021/11/18 05:28:35;;;;;;;31.52;12.35;;;;;;;0.09;69.50;99770.13;5012666;28;20127;-52
2021/11/18 05:31:01;;;;;;;28.02;10.82;;;;;;;0.07;68.82;99764.97;5016146;28;20068;-54
2021/11/18 05:33:29;;;;;;;20.48;8.57;;;;;;;-0.04;69.44;99775.09;5031666;28;20045;-54
2021/11/18 05:35:57;;;;;;;;;;;;;;;-0.02;69.72;99767.47;5029678;28;20517;-50
2021/11/18 05:38:24;;;;;;;28.55;10.50;;;;;;;-0.01;69.36;99769.19;5030212;28;19920;-54
2021/11/18 05:40:52;;;;;;;29.98;11.77;;;;;;;-0.15;70.03;99763.91;5029401;28;20064;-54
2021/11/18 05:43:23;;;;;;;32.38;13.45;;;;;;;-0.12;69.85;99755.44;5018354;28;20041;-54
2021/11/18 05:45:49;;;;;;;19.75;8.77;;;;;;;-0.05;69.49;99750.38;5025460;28;20095;-63
2021/11/18 05:48:17;;;;;;;33.45;14.70;;;;;;;0.02;69.70;99755.56;5032069;28;20033;-61
2021/11/18 05:50:51;;;;;;;25.63;10.50;;;;;;;-0.05;69.57;99754.63;5016755;28;20129;-61
2021/11/18 05:53:23;;;;;;;34.72;11.57;;;;;;;-0.04;69.95;99769.13;5033785;28;20119;-61
2021/11/18 05:55:49;;;;;;;31.65;14.05;;;;;;;-0.05;69.85;99760.59;5052427;28;20073;-61
2021/11/18 05:58:15;;;;;;;30.70;11.05;;;;;;;-0.01;69.77;99752.16;5043521;28;20049;-61
2021/11/18 06:00:41;;;;;;;24.95;11.30;;;;;;;-0.06;69.68;99763.16;5045354;28;20083;-60
2021/11/18 06:03:08;;;;;;;29.63;12.60;;;;;;;-0.06;69.87;99753.81;5046674;28;20045;-63
2021/11/18 06:05:37;;;;;;;33.50;15.13;;;;;;;-0.02;69.77;99752.13;5030383;28;20057;-62
2021/11/18 06:08:03;;;;;;;25.13;11.10;;;;;;;-0.13;69.79;99725.63;5026762;28;20061;-60
2021/11/18 06:10:32;;;;;;;31.30;13.50;;;;;;;-0.24;69.38;99711.88;5011612;28;20041;-62
2021/11/18 06:13:00;;;;;;;22.40;10.50;;;;;;;-0.21;69.56;99751.06;5026974;28;20045;-60
2021/11/18 06:15:36;;;;;;;31.98;13.27;;;;;;;-0.10;69.54;99749.50;5024191;28;20078;-60
2021/11/18 06:18:04;;;;;;;20.48;10.43;;;;;;;-0.34;68.95;99741.59;5031061;28;20123;-60
2021/11/18 06:20:31;;;;;;;28.98;11.32;;;;;;;-0.54;69.49;99723.53;5002394;28;20120;-60
2021/11/18 06:22:58;;;;;;;29.23;13.70;;;;;;;-0.30;69.67;99743.34;5016394;28;20489;-60
2021/11/18 06:25:27;;;;;;;21.52;10.02;;;;;;;-0.25;68.83;99757.00;5046282;28;20043;-60
2021/11/18 06:27:53;;;;;;;24.20;12.20;;;;;;;-0.46;69.23;99737.22;5025097;28;20037;-59
2021/11/18 06:30:43;;;;;;;24.58;11.32;;;;;;;-0.63;69.48;99743.81;5027890;28;20038;-60
2021/11/18 06:33:11;;;;;;;22.45;10.35;;;;;;;-0.65;70.09;99739.56;5029357;28;20132;-61
2021/11/18 06:35:38;;;;;;;21.60;10.10;;;;;;;-0.74;70.58;99726.69;5035487;28;20120;-62
2021/11/18 06:38:04;;;;;;;22.33;10.57;;;;;;;-0.77;70.85;99729.19;5028030;28;20084;-60
2021/11/18 06:40:30;;;;;;;25.00;11.38;;;;;;;-0.83;70.79;99717.22;5027561;28;20050;-62
2021/11/18 06:42:57;;;;;;;22.48;10.30;;;;;;;-0.74;70.96;99716.47;5016613;28;20890;-61
2021/11/18 06:45:36;;;;;;;18.17;8.32;;;;;;;-0.85;71.02;99721.47;5027657;28;20084;-62
2021/11/18 06:48:08;;;;;;;22.80;10.35;;;;;;;-0.86;70.83;99705.28;4995671;28;20038;-61
2021/11/18 06:50:34;;;;;;;19.55;9.68;;;;;;;-0.80;71.18;99717.28;5016709;28;20045;-61
2021/11/18 06:53:06;;;;;;;23.15;9.93;;;;;;;-0.74;70.92;99712.25;5018757;28;20121;-59
2021/11/18 06:55:32;;;;;;;22.85;9.60;;;;;;;-0.70;70.51;99721.63;5027034;28;20108;-61
2021/11/18 06:57:59;;;;;;;15.27;6.55;;;;;;;-0.70;71.00;99713.97;5027360;28;20041;-61
2021/11/18 07:00:25;;;;;;;32.70;11.02;;;;;;;-0.66;71.20;99717.41;5027196;28;20049;-61
2021/11/18 07:02:52;;;;;;;31.00;12.02;;;;;;;-0.82;70.92;99672.13;5010846;28;20056;-61
2021/11/18 07:05:18;;;;;;;20.95;9.00;;;;;;;-0.55;70.24;99709.03;5044777;28;20039;-61
2021/11/18 07:07:44;;;;;;;28.35;10.68;;;;;;;-0.53;70.63;99698.84;5026143;28;20120;-62
2021/11/18 07:10:12;;;;;;;26.33;11.20;;;;;;;-0.41;70.25;99704.06;5027105;28;20038;-60
2021/11/18 07:12:52;;;;;;;33.70;11.25;;;;;;;-0.39;70.12;99694.72;5010470;28;20172;-61
2021/11/18 07:15:19;;;;;;;23.23;10.02;;;;;;;-0.33;70.09;99694.78;5039380;28;20041;-62
2021/11/18 07:17:47;;;;;;;26.02;10.40;;;;;;;-0.30;70.05;99699.91;5029897;28;20040;-61
2021/11/18 07:20:13;;;;;;;14.98;6.07;;;;;;;-0.50;69.85;99658.00;5046529;28;20044;-61
2021/11/18 07:22:39;;;;;;;30.67;11.00;;;;;;;-0.31;69.66;99682.88;5030020;28;20244;-62
2021/11/18 07:25:12;;;;;;;28.75;11.52;;;;;;;-0.20;69.94;99678.72;5036174;28;20236;-62
2021/11/18 07:27:40;;;;;;;24.58;10.25;;;;;;;-0.14;69.63;99672.81;5029077;28;20041;-62
2021/11/18 07:30:07;;;;;;;14.15;6.03;;;;;;;-0.19;69.50;99680.44;5046080;28;20048;-61
2021/11/18 07:32:33;;;;;;;23.63;9.00;;;;;;;-0.21;69.94;99681.28;5030954;28;20532;-60
2021/11/18 07:35:00;;;;;;;35.33;11.70;;;;;;;-0.28;69.52;99644.59;5029350;28;20060;-61
2021/11/18 07:37:29;;;;;;;28.45;11.30;;;;;;;-0.14;69.48;99658.31;5033351;28;20042;-61
2021/11/18 07:39:56;;;;;;;26.77;9.80;;;;;;;-0.01;69.39;99669.50;5009821;28;20124;-62
2021/11/18 07:42:24;;;;;;;24.67;9.35;;;;;;;0.01;68.84;99665.25;5027689;28;20064;-60
2021/11/18 07:45:22;;;;;;;19.48;8.18;;;;;;;0.09;68.77;99678.09;5009015;28;20065;-61
2021/11/18 07:48:07;;;;;;;20.45;8.95;;;;;;;-0.01;68.63;99674.63;5010034;28;20037;-61
2021/11/18 07:50:33;;;;;;;26.95;9.75;;;;;;;-0.01;69.29;99659.28;5022185;28;20534;-61
2021/11/18 07:53:01;;;;;;;15.55;7.32;;;;;;;-0.12;68.89;99671.97;5025830;28;20545;-61
2021/11/18 07:55:29;;;;;;;28.73;11.73;;;;;;;-0.21;69.56;99654.00;5029076;28;20188;-60
2021/11/18 07:57:55;;;;;;;24.52;10.13;;;;;;;-0.15;69.38;99665.97;5028784;28;20041;-60
2021/11/18 08:00:24;;;;;;;22.38;8.57;;;;;;;-0.18;68.90;99655.75;5025692;28;20525;-61
2021/11/18 08:03:08;;;;;;;29.15;8.10;;;;;;;-0.17;69.10;99644.69;5027773;28;20045;-60
2021/11/18 08:06:01;;;;;;;15.50;7.63;;;;;;;-0.19;69.11;99659.13;5029073;28;20049;-62
2021/11/18 08:08:28;;;;;;;18.48;7.78;;;;;;;-0.26;69.48;99653.09;5045345;28;20053;-60
2021/11/18 08:10:54;;;;;;;43.80;8.43;;;;;;;-0.19;69.21;99651.47;5026231;28;20160;-60
2021/11/18 08:13:20;;;;;;;25.52;11.18;;;;;;;-0.14;69.38;99653.22;5011635;28;20051;-60
2021/11/18 08:15:47;;;;;;;18.15;6.72;;;;;;;-0.21;69.17;99648.06;5025729;28;20524;-59
2021/11/18 08:18:13;;;;;;;30.17;10.68;;;;;;;-0.23;69.37;99652.28;5009915;28;20070;-60
2021/11/18 08:20:39;;;;;;;29.15;10.70;;;;;;;-0.18;69.13;99641.28;5033792;28;20041;-60
2021/11/18 08:23:08;;;;;;;25.77;9.43;;;;;;;-0.18;68.96;99628.50;5042364;28;20128;-60
2021/11/18 08:25:35;;;;;;;26.92;9.77;;;;;;;-0.18;69.33;99633.59;5009594;28;20050;-61
2021/11/18 08:28:02;;;;;;;21.92;8.93;;;;;;;-0.19;68.89;99636.13;5025589;28;20064;-61
2021/11/18 08:30:31;;;;;;;13.13;6.72;;;;;;;-0.27;69.32;99637.78;5039321;28;20038;-60
2021/11/18 08:33:02;;;;;;;28.60;10.50;;;;;;;-0.23;69.20;99619.09;5026778;28;20037;-62
2021/11/18 08:35:32;;;;;;;17.52;8.00;;;;;;;-0.15;68.70;99633.63;5025208;28;20046;-61
2021/11/18 08:38:05;;;;;;;20.20;9.48;;;;;;;-0.21;68.86;99619.97;5043154;28;20045;-62
2021/11/18 08:40:35;;;;;;;29.00;10.02;;;;;;;-0.17;69.07;99614.88;5025754;28;20136;-61
2021/11/18 08:43:04;;;;;;;21.17;9.45;;;;;;;-0.13;69.21;99611.50;5009755;28;20053;-62
2021/11/18 08:45:33;;;;;;;16.25;6.82;;;;;;;-0.06;68.46;99614.97;5039789;28;20104;-61
2021/11/18 08:48:05;;;;;;;17.83;7.75;;;;;;;0.02;68.77;99609.88;4994839;28;20457;-62
2021/11/18 08:50:32;;;;;;;15.27;7.53;;;;;;;-0.05;67.96;99599.63;5027196;28;20429;-61
2021/11/18 08:52:58;;;;;;;31.13;11.32;;;;;;;-0.10;67.86;99570.63;5025409;28;20044;-61
2021/11/18 08:55:29;;;;;;;17.90;6.78;;;;;;;-0.09;67.53;99567.25;5025385;28;20057;-61
2021/11/18 08:57:56;;;;;;;17.10;8.75;;;;;;;-0.01;67.01;99575.81;5045383;28;20045;-64
2021/11/18 09:00:44;;;;;;;29.13;10.95;;;;;;;0.04;67.38;99578.41;5028783;28;20049;-61
2021/11/18 09:03:21;;;;;;;26.23;10.02;;;;;;;0.26;66.75;99575.09;5028436;28;20128;-59
2021/11/18 09:05:48;;;;;;;22.52;10.43;;;;;;;0.24;66.32;99578.50;5007378;28;20042;-61
2021/11/18 09:08:14;;;;;;;18.65;8.07;;;;;;;0.17;66.10;99595.50;5008899;28;20067;-60
2021/11/18 09:10:50;;;;;;;12.10;7.75;;;;;;;0.07;65.51;99578.41;5008995;28;20057;-62
2021/11/18 09:13:18;;;;;;;18.52;8.57;;;;;;;-0.16;65.86;99549.31;5025401;28;20042;-61
2021/11/18 09:15:45;;;;;;;23.30;10.68;;;;;;;0.05;65.98;99575.00;5009268;28;20528;-59
2021/11/18 09:18:12;;;;;;;19.55;9.90;;;;;;;0.07;65.55;99565.63;5033592;28;20133;-61
2021/11/18 09:20:45;;;;;;;28.27;8.30;;;;;;;0.10;65.63;99564.81;5024860;28;20484;-62
2021/11/18 09:23:15;;;;;;;28.20;11.68;;;;;;;0.22;65.35;99568.25;5008769;28;20046;-61
2021/11/18 09:25:45;;;;;;;15.43;6.60;;;;;;;0.23;64.34;99569.13;5024816;28;20042;-61
2021/11/18 09:28:14;;;;;;;20.83;8.85;;;;;;;0.22;64.51;99564.84;5026584;28;20045;-61
2021/11/18 09:30:54;;;;;;;21.52;10.63;;;;;;;0.27;64.09;99555.50;5028885;28;20468;-62
2021/11/18 09:33:21;;;;;;;16.05;6.72;;;;;;;0.29;63.36;99536.78;5031825;28;20532;-62
2021/11/18 09:35:52;;;;;;;25.45;10.88;;;;;;;0.34;63.66;99553.00;5032224;28;20041;-59
2021/11/18 09:38:22;;;;;;;19.63;8.27;;;;;;;0.32;63.02;99549.56;5048718;28;20045;-63
2021/11/18 09:40:59;;;;;;;20.17;6.85;;;;;;;0.21;62.58;99541.00;5042291;28;20092;-60
2021/11/18 09:43:35;;;;;;;21.50;9.50;;;;;;;0.28;62.78;99536.75;5028349;28;20033;-62
2021/11/18 09:46:43;;;;;;;16.23;7.43;;;;;;;0.26;62.57;99544.41;5012029;28;20049;-62
2021/11/18 09:50:02;;;;;;;18.08;8.20;;;;;;;0.22;62.39;99535.03;5029197;28;20038;-63
2021/11/18 09:53:12;;;;;;;15.40;7.22;;;;;;;0.14;61.98;99523.94;5010585;28;20052;-60
2021/11/18 09:55:47;;;;;;;26.70;9.60;;;;;;;0.15;61.77;99520.53;5008512;28;20050;-61
2021/11/18 09:58:16;;;;;;;25.10;11.93;;;;;;;0.31;61.70;99509.53;5023839;28;20053;-60
2021/11/18 10:01:09;;;;;;;24.30;9.35;;;;;;;0.40;61.13;99512.13;5028875;28;20952;-62
2021/11/18 10:04:34;;;;;;;13.27;6.90;;;;;;;0.17;60.88;99500.94;5029588;28;20098;-62
2021/11/18 10:07:02;;;;;;;13.93;7.13;;;;;;;0.23;61.07;99510.31;5004699;28;20053;-62
2021/11/18 10:09:54;;;;;;;18.80;8.93;;;;;;;0.12;61.24;99499.19;5027931;28;20532;-62
2021/11/18 10:12:34;;;;;;;26.83;11.80;;;;;;;0.18;61.13;99505.19;5042207;28;20053;-62
2021/11/18 10:15:10;;;;;;;22.50;10.15;;;;;;;0.23;61.46;99495.00;5014995;28;20037;-59
2021/11/18 10:17:48;;;;;;;28.80;11.88;;;;;;;0.37;61.36;99496.75;5010912;28;20045;-62
2021/11/18 10:20:30;;;;;;;26.58;11.38;;;;;;;0.23;60.91;99480.50;5036443;28;20064;-65
2021/11/18 10:23:10;;;;;;;23.92;10.85;;;;;;;0.34;61.11;99493.34;5044570;28;20100;-62
2021/11/18 10:25:40;;;;;;;23.30;10.40;;;;;;;0.42;60.99;99479.72;5020058;28;20083;-63
2021/11/18 10:28:19;;;;;;;21.17;10.40;;;;;;;0.47;61.07;99479.75;5030930;28;20045;-62
2021/11/18 10:31:15;;;;;;;28.65;10.10;;;;;;;0.29;61.45;99470.31;5022026;28;20525;-62
2021/11/18 10:33:49;;;;;;;20.55;9.02;;;;;;;0.17;61.70;99464.28;5027098;28;20051;-62
2021/11/18 10:36:34;;;;;;;21.52;10.95;;;;;;;0.35;61.19;99449.88;5028899;28;20045;-62
2021/11/18 10:39:25;;;;;;;26.05;10.95;;;;;;;0.39;61.32;99460.97;5029934;28;20436;-62
2021/11/18 10:42:00;;;;;;;19.08;7.20;;;;;;;0.40;61.28;99455.00;5013691;28;20107;-62
2021/11/18 10:44:31;;;;;;;27.60;11.60;;;;;;;0.54;61.06;99442.22;5013620;28;20585;-62
2021/11/18 10:47:06;;;;;;;24.73;11.27;;;;;;;0.58;60.84;99444.78;5011944;28;20111;-61
2021/11/18 10:49:39;;;;;;;25.42;8.35;;;;;;;0.52;61.35;99444.81;5025401;28;20042;-63
2021/11/18 10:52:26;;;;;;;23.63;11.05;;;;;;;0.37;61.30;99453.28;5012658;28;20505;-62
2021/11/18 10:55:03;;;;;;;26.65;11.40;;;;;;;0.29;61.69;99454.13;5010821;28;20058;-61
2021/11/18 10:57:32;;;;;;;25.30;11.88;;;;;;;0.18;62.32;99450.66;5012184;28;20111;-63
2021/11/18 11:00:16;;;;;;;23.00;11.27;;;;;;;-0.07;62.31;99409.69;5044690;28;20038;-61
2021/11/18 11:02:42;;;;;;;23.60;10.50;;;;;;;0.09;62.76;99445.53;5027419;28;20867;-63
2021/11/18 11:05:54;;;;;;;26.02;11.98;;;;;;;0.18;62.52;99425.09;5012242;28;20073;-60
2021/11/18 11:08:32;;;;;;;20.40;9.73;;;;;;;0.19;62.56;99424.25;5005002;28;20422;-60
2021/11/18 11:11:03;;;;;;;21.35;8.07;;;;;;;0.09;62.76;99419.97;5028038;28;20091;-61
2021/11/18 11:14:09;;;;;;;20.88;8.88;;;;;;;0.05;63.07;99418.25;5030177;28;20121;-61
2021/11/18 11:16:50;;;;;;;31.92;13.05;;;;;;;0.03;63.25;99404.63;5029759;28;20064;-62
2021/11/18 11:19:37;;;;;;;28.17;11.80;;;;;;;0.07;62.91;99385.88;5031375;28;20128;-62
2021/11/18 11:22:16;;;;;;;20.23;8.35;;;;;;;0.20;63.47;99415.75;5022083;28;20065;-61
2021/11/18 11:25:00;;;;;;;19.20;9.02;;;;;;;0.06;64.10;99396.94;5026885;28;20752;-60
2021/11/18 11:27:53;;;;;;;19.17;8.32;;;;;;;0.09;63.71;99384.19;5026766;28;20057;-62
2021/11/18 11:30:32;;;;;;;33.55;11.27;;;;;;;0.06;63.65;99350.94;5011139;28;20184;-63
2021/11/18 11:33:13;;;;;;;26.05;10.93;;;;;;;0.16;64.01;99362.94;5026505;28;20042;-63
2021/11/18 11:36:00;;;;;;;22.00;8.80;;;;;;;0.21;63.83;99361.22;5009869;28;20099;-61
2021/11/18 11:38:29;;;;;;;28.98;11.40;;;;;;;0.27;63.44;99368.88;5009700;28;20469;-61
2021/11/18 11:41:28;;;;;;;26.25;12.82;;;;;;;0.20;63.59;99352.72;5011121;28;20066;-61
2021/11/18 11:43:59;;;;;;;28.52;12.68;;;;;;;0.15;64.23;99359.50;5011084;28;20048;-62
2021/11/18 11:46:54;;;;;;;32.90;14.77;;;;;;;0.31;63.64;99348.47;5022015;28;20041;-61
2021/11/18 11:49:31;;;;;;;30.40;13.68;;;;;;;0.42;63.33;99328.00;5030871;28;20042;-62